sensor_id;sensor_type;location;lat;lon;timestamp;pressure;altitude;pressure_sealevel;temperature;humidity
38163;BME280;23977;53.078;18.248;2023-04-06T04:40:37;101634.22;;;-2.89;100.00
38163;BME280;23977;53.078;18.248;2023-04-06T04:58:08;101592.41;;;-2.84;100.00
38163;BME280;23977;53.078;18.248;2023-04-06T05:13:50;101908.19;;;-0.48;100.00
38163;BME280;23977;53.078;18.248;2023-04-06T05:16:16;101758.56;;;-1.21;99.69
38163;BME280;23977;53.078;18.248;2023-04-06T05:18:43;101921.66;;;0.08;98.38
38163;BME280;23977;53.078;18.248;2023-04-06T05:21:13;101739.69;;;-1.05;98.64
38163;BME280;23977;53.078;18.248;2023-04-06T05:23:42;101771.28;;;-0.67;95.64
38163;BME280;23977;53.078;18.248;2023-04-06T05:26:10;101743.69;;;-0.97;96.15
38163;BME280;23977;53.078;18.248;2023-04-06T05:28:36;101677.34;;;-1.37;96.51
38163;BME280;23977;53.078;18.248;2023-04-06T05:31:12;101745.47;;;-0.97;96.94
38163;BME280;23977;53.078;18.248;2023-04-06T05:33:39;102099.47;;;1.20;97.48
38163;BME280;23977;53.078;18.248;2023-04-06T05:36:07;101841.88;;;-0.25;97.48
38163;BME280;23977;53.078;18.248;2023-04-06T05:38:33;101724.72;;;-0.80;96.76
38163;BME280;23977;53.078;18.248;2023-04-06T05:51:24;101631.22;;;-0.94;95.31
38163;BME280;23977;53.078;18.248;2023-04-06T05:53:51;101756.28;;;-0.21;94.56
38163;BME280;23977;53.078;18.248;2023-04-06T05:56:17;101735.81;;;-0.11;93.75
38163;BME280;23977;53.078;18.248;2023-04-06T05:58:43;101793.72;;;0.60;92.24
38163;BME280;23977;53.078;18.248;2023-04-06T06:01:18;101894.38;;;1.13;93.26
38163;BME280;23977;53.078;18.248;2023-04-06T06:04:03;101727.53;;;0.38;93.43
38163;BME280;23977;53.078;18.248;2023-04-06T06:06:32;101746.00;;;0.72;91.71
38163;BME280;23977;53.078;18.248;2023-04-06T06:09:00;101738.53;;;0.63;91.49
38163;BME280;23977;53.078;18.248;2023-04-06T06:11:28;102108.81;;;3.12;91.11
38163;BME280;23977;53.078;18.248;2023-04-06T06:13:56;102089.06;;;3.39;87.48
38163;BME280;23977;53.078;18.248;2023-04-06T06:16:32;102083.81;;;3.39;87.22
38163;BME280;23977;53.078;18.248;2023-04-06T06:18:58;101673.13;;;0.98;87.16
38163;BME280;23977;53.078;18.248;2023-04-06T06:21:25;101844.75;;;2.16;86.60
38163;BME280;23977;53.078;18.248;2023-04-06T06:23:53;101786.81;;;2.19;84.03
38163;BME280;23977;53.078;18.248;2023-04-06T06:26:23;101831.91;;;2.45;84.15
38163;BME280;23977;53.078;18.248;2023-04-06T06:29:24;101898.06;;;3.34;83.48
38163;BME280;23977;53.078;18.248;2023-04-06T06:32:41;102087.75;;;4.59;83.65
38163;BME280;23977;53.078;18.248;2023-04-06T06:35:25;101846.63;;;3.45;80.34
38163;BME280;23977;53.078;18.248;2023-04-06T06:38:14;101835.75;;;3.51;75.97
38163;BME280;23977;53.078;18.248;2023-04-06T07:16:20;102062.56;;;8.80;50.67
38163;BME280;23977;53.078;18.248;2023-04-06T07:32:31;101648.44;;;7.34;45.00
38163;BME280;23977;53.078;18.248;2023-04-06T07:34:58;101997.66;;;10.07;43.26
38163;BME280;23977;53.078;18.248;2023-04-06T07:37:23;102043.81;;;10.82;42.12
38163;BME280;23977;53.078;18.248;2023-04-06T07:39:49;102048.78;;;11.17;39.99
38163;BME280;23977;53.078;18.248;2023-04-06T07:42:19;101928.50;;;11.32;39.03
38163;BME280;23977;53.078;18.248;2023-04-06T07:44:51;102043.25;;;13.17;35.37
38163;BME280;23977;53.078;18.248;2023-04-06T07:47:20;101813.91;;;12.75;33.25
38163;BME280;23977;53.078;18.248;2023-04-06T07:49:46;102012.63;;;15.62;31.39
38163;BME280;23977;53.078;18.248;2023-04-06T07:55:11;101835.91;;;20.65;23.56
38163;BME280;23977;53.078;18.248;2023-04-06T08:08:38;102039.94;;;13.53;29.30
38163;BME280;23977;53.078;18.248;2023-04-06T08:12:29;101712.03;;;9.67;31.12
38163;BME280;23977;53.078;18.248;2023-04-06T08:15:26;101888.13;;;9.48;32.67
38163;BME280;23977;53.078;18.248;2023-04-06T08:17:58;102046.47;;;9.73;34.93
38163;BME280;23977;53.078;18.248;2023-04-06T08:20:26;101602.41;;;6.42;35.11
38163;BME280;23977;53.078;18.248;2023-04-06T08:22:56;101779.66;;;7.38;35.94
38163;BME280;23977;53.078;18.248;2023-04-06T08:25:28;101611.78;;;6.46;36.21
38163;BME280;23977;53.078;18.248;2023-04-06T08:27:56;101851.69;;;8.26;35.73
38163;BME280;23977;53.078;18.248;2023-04-06T08:30:24;101774.81;;;8.14;34.61
38163;BME280;23977;53.078;18.248;2023-04-06T08:32:51;101669.91;;;7.54;34.06
38163;BME280;23977;53.078;18.248;2023-04-06T08:35:29;101848.16;;;8.95;34.10
38163;BME280;23977;53.078;18.248;2023-04-06T08:37:56;101674.50;;;7.86;34.19
38163;BME280;23977;53.078;18.248;2023-04-06T08:43:16;101806.84;;;9.02;35.04
38163;BME280;23977;53.078;18.248;2023-04-06T08:45:55;101747.25;;;8.95;34.22
38163;BME280;23977;53.078;18.248;2023-04-06T08:48:20;101904.41;;;9.87;33.40
38163;BME280;23977;53.078;18.248;2023-04-06T08:50:46;101938.84;;;10.21;34.30
38163;BME280;23977;53.078;18.248;2023-04-06T08:53:12;102017.06;;;10.30;35.39
38163;BME280;23977;53.078;18.248;2023-04-06T08:55:38;102011.97;;;9.94;36.34
38163;BME280;23977;53.078;18.248;2023-04-06T08:58:06;102042.84;;;9.74;38.56
38163;BME280;23977;53.078;18.248;2023-04-06T09:00:32;102034.28;;;9.48;37.17
38163;BME280;23977;53.078;18.248;2023-04-06T09:02:59;102021.34;;;9.32;38.33
38163;BME280;23977;53.078;18.248;2023-04-06T09:26:47;101915.66;;;19.18;23.81
38163;BME280;23977;53.078;18.248;2023-04-06T09:29:25;101965.84;;;23.02;21.42
38163;BME280;23977;53.078;18.248;2023-04-06T09:31:51;102009.13;;;22.30;21.31
38163;BME280;23977;53.078;18.248;2023-04-06T09:34:22;101820.09;;;18.91;22.81
38163;BME280;23977;53.078;18.248;2023-04-06T09:36:49;102017.31;;;18.11;24.94
38163;BME280;23977;53.078;18.248;2023-04-06T09:39:15;101960.16;;;15.59;27.22
38163;BME280;23977;53.078;18.248;2023-04-06T09:41:40;101963.13;;;15.05;28.00
38163;BME280;23977;53.078;18.248;2023-04-06T09:44:13;101981.75;;;14.00;29.44
38163;BME280;23977;53.078;18.248;2023-04-06T09:46:41;101955.22;;;12.68;30.31
38163;BME280;23977;53.078;18.248;2023-04-06T09:49:09;101985.19;;;11.94;32.03
38163;BME280;23977;53.078;18.248;2023-04-06T09:51:40;102027.63;;;11.56;33.65
38163;BME280;23977;53.078;18.248;2023-04-06T09:54:10;102025.84;;;11.36;33.11
38163;BME280;23977;53.078;18.248;2023-04-06T09:56:45;101979.75;;;11.04;33.96
38163;BME280;23977;53.078;18.248;2023-04-06T10:01:58;102020.97;;;11.81;33.50
38163;BME280;23977;53.078;18.248;2023-04-06T10:04:34;102013.63;;;11.74;33.75
38163;BME280;23977;53.078;18.248;2023-04-06T10:07:03;101956.72;;;12.04;32.79
38163;BME280;23977;53.078;18.248;2023-04-06T10:09:31;102006.53;;;13.57;31.88
38163;BME280;23977;53.078;18.248;2023-04-06T10:12:07;101947.66;;;12.64;32.20
38163;BME280;23977;53.078;18.248;2023-04-06T10:14:34;101978.50;;;11.59;32.31
38163;BME280;23977;53.078;18.248;2023-04-06T10:17:05;101996.88;;;12.51;32.66
38163;BME280;23977;53.078;18.248;2023-04-06T10:20:07;102001.31;;;12.80;31.89
38163;BME280;23977;53.078;18.248;2023-04-06T10:22:44;101996.03;;;12.12;33.13
38163;BME280;23977;53.078;18.248;2023-04-06T10:25:16;101968.28;;;11.64;33.62
38163;BME280;23977;53.078;18.248;2023-04-06T10:27:43;101962.41;;;11.20;34.89
38163;BME280;23977;53.078;18.248;2023-04-06T10:30:10;101976.91;;;10.96;34.62
38163;BME280;23977;53.078;18.248;2023-04-06T10:32:37;101937.03;;;10.85;35.30
38163;BME280;23977;53.078;18.248;2023-04-06T10:35:10;101989.44;;;11.46;34.54
38163;BME280;23977;53.078;18.248;2023-04-06T10:38:00;101992.31;;;11.02;35.95
38163;BME280;23977;53.078;18.248;2023-04-06T10:40:30;101933.59;;;11.04;34.64
38163;BME280;23977;53.078;18.248;2023-04-06T10:43:17;101848.00;;;10.47;35.11
38163;BME280;23977;53.078;18.248;2023-04-06T10:45:57;101819.22;;;10.10;36.19
38163;BME280;23977;53.078;18.248;2023-04-06T10:48:37;101731.72;;;9.43;35.09
38163;BME280;23977;53.078;18.248;2023-04-06T10:51:16;101595.28;;;8.81;34.80
38163;BME280;23977;53.078;18.248;2023-04-06T10:53:47;101582.16;;;8.36;34.79
38163;BME280;23977;53.078;18.248;2023-04-06T10:56:40;101971.50;;;10.86;36.11
38163;BME280;23977;53.078;18.248;2023-04-06T10:59:29;101802.47;;;9.23;36.33
38163;BME280;23977;53.078;18.248;2023-04-06T11:02:19;101742.25;;;8.69;37.02
38163;BME280;23977;53.078;18.248;2023-04-06T11:39:22;101527.84;;;8.63;36.27
38163;BME280;23977;53.078;18.248;2023-04-06T11:42:07;101901.25;;;11.18;35.80
38163;BME280;23977;53.078;18.248;2023-04-06T11:47:07;101539.41;;;9.04;35.24
38163;BME280;23977;53.078;18.248;2023-04-06T11:49:37;101599.50;;;9.57;35.25
38163;BME280;23977;53.078;18.248;2023-04-06T12:09:55;101554.44;;;8.29;38.27
38163;BME280;23977;53.078;18.248;2023-04-06T12:12:26;101753.25;;;9.40;38.77
38163;BME280;23977;53.078;18.248;2023-04-06T12:20:32;101880.56;;;10.60;37.93
38163;BME280;23977;53.078;18.248;2023-04-06T12:35:28;101741.03;;;8.84;39.06
38163;BME280;23977;53.078;18.248;2023-04-06T12:38:13;101469.13;;;7.36;37.90
38163;BME280;23977;53.078;18.248;2023-04-06T12:57:29;101760.25;;;9.84;37.36
38163;BME280;23977;53.078;18.248;2023-04-06T13:00:00;101863.59;;;10.09;39.01
38163;BME280;23977;53.078;18.248;2023-04-06T13:02:46;101873.28;;;9.78;39.60
38163;BME280;23977;53.078;18.248;2023-04-06T13:13:23;101581.75;;;8.52;39.98
38163;BME280;23977;53.078;18.248;2023-04-06T13:15:50;101816.78;;;10.28;39.30
38163;BME280;23977;53.078;18.248;2023-04-06T13:18:16;101483.06;;;8.05;40.58
38163;BME280;23977;53.078;18.248;2023-04-06T13:20:45;101487.94;;;8.21;40.04
38163;BME280;23977;53.078;18.248;2023-04-06T13:23:14;101548.41;;;8.38;40.08
38163;BME280;23977;53.078;18.248;2023-04-06T13:25:44;101403.88;;;7.35;41.40
38163;BME280;23977;53.078;18.248;2023-04-06T13:28:13;101556.94;;;7.98;40.92
38163;BME280;23977;53.078;18.248;2023-04-06T13:30:47;101455.03;;;7.13;40.73
38163;BME280;23977;53.078;18.248;2023-04-06T13:33:13;101613.44;;;8.10;41.31
38163;BME280;23977;53.078;18.248;2023-04-06T13:35:50;101485.00;;;7.36;41.28
38163;BME280;23977;53.078;18.248;2023-04-06T13:38:35;101625.91;;;8.30;41.23
38163;BME280;23977;53.078;18.248;2023-04-06T14:00:24;101518.16;;;7.97;42.68
38163;BME280;23977;53.078;18.248;2023-04-06T14:04:08;101803.94;;;10.12;42.45
